Time;durP1;ratioP1;P1;durP2;ratioP2;P2;SDS_P1;SDS_P2;PMS_P1;PMS_P2;Temp;Humidity;BMP_temperature;BMP_pressure;BME280_temperature;BME280_humidity;BME280_pressure;Samples;Min_cycle;Max_cycle;Signal;HPM_P1;HPM_P2
2023/05/19 00:02:07;;;;;;;5.60;2.33;;;9.60;99.90;;;;;;6118895;23;20021;-81
2023/05/19 00:04:35;;;;;;;4.00;2.30;;;9.60;99.90;;;;;;6115661;23;20037;-83
2023/05/19 00:07:02;;;;;;;10.07;3.05;;;9.60;99.90;;;;;;6117584;23;20012;-81
2023/05/19 00:09:28;;;;;;;7.65;3.03;;;9.60;99.90;;;;;;6116493;23;20306;-81
2023/05/19 00:11:55;;;;;;;5.35;1.90;;;9.60;99.90;;;;;;6115280;23;20057;-82
2023/05/19 00:14:21;;;;;;;9.35;2.72;;;9.60;99.90;;;;;;6117602;23;20340;-81
2023/05/19 00:16:47;;;;;;;9.68;2.22;;;9.60;99.90;;;;;;6117004;23;20073;-82
2023/05/19 00:19:13;;;;;;;7.88;2.50;;;9.60;99.90;;;;;;6116615;23;20029;-82
2023/05/19 00:21:39;;;;;;;9.60;2.42;;;9.60;99.90;;;;;;6114191;23;20013;-83
2023/05/19 00:24:06;;;;;;;9.30;2.70;;;9.60;99.90;;;;;;6116049;23;20016;-82
2023/05/19 00:26:31;;;;;;;9.85;2.17;;;9.60;99.90;;;;;;6116518;23;20012;-83
2023/05/19 00:28:57;;;;;;;10.40;2.80;;;9.60;99.90;;;;;;6118679;23;20010;-82
2023/05/19 00:31:26;;;;;;;9.68;2.47;;;9.60;99.90;;;;;;6118893;23;20064;-84
2023/05/19 00:33:52;;;;;;;5.97;2.25;;;9.60;99.90;;;;;;6113430;23;20041;-83
2023/05/19 00:36:18;;;;;;;16.38;3.17;;;9.60;99.90;;;;;;6115244;23;19987;-81
2023/05/19 00:38:44;;;;;;;12.23;2.97;;;9.60;99.90;;;;;;6114927;23;20266;-82
2023/05/19 00:41:10;;;;;;;6.55;2.75;;;9.50;99.90;;;;;;6117778;23;20013;-82
2023/05/19 00:43:36;;;;;;;6.45;2.60;;;9.50;99.90;;;;;;6116060;23;20072;-82
2023/05/19 00:46:02;;;;;;;12.13;2.65;;;9.50;99.90;;;;;;6117839;23;20006;-81
2023/05/19 00:48:28;;;;;;;10.75;3.05;;;9.50;99.90;;;;;;6117472;23;20121;-82
2023/05/19 00:51:00;;;;;;;7.45;2.53;;;9.50;99.90;;;;;;6114696;23;20006;-81
2023/05/19 00:53:27;;;;;;;13.30;2.95;;;9.50;99.90;;;;;;6115773;23;20005;-82
2023/05/19 00:55:53;;;;;;;13.40;2.95;;;9.40;99.90;;;;;;6113036;23;20018;-83
2023/05/19 00:58:19;;;;;;;7.72;2.63;;;9.40;99.90;;;;;;6115806;23;20002;-81
2023/05/19 01:00:44;;;;;;;8.77;3.03;;;9.40;99.90;;;;;;6116463;23;20265;-81
2023/05/19 01:03:10;;;;;;;7.35;2.67;;;9.40;99.90;;;;;;6118160;23;20006;-82
2023/05/19 01:05:44;;;;;;;12.55;3.92;;;9.40;99.90;;;;;;6115331;23;20013;-82
2023/05/19 01:08:10;;;;;;;9.00;2.67;;;9.40;99.90;;;;;;6115036;23;20009;-82
2023/05/19 01:10:36;;;;;;;8.15;2.90;;;9.30;99.90;;;;;;6114774;23;20014;-81
2023/05/19 01:13:03;;;;;;;5.65;2.30;;;9.30;99.90;;;;;;6115998;23;20029;-81
2023/05/19 01:15:51;;;;;;;4.68;2.10;;;9.30;99.90;;;;;;6115040;23;20013;-85
2023/05/19 01:18:27;;;;;;;13.52;3.13;;;9.30;99.90;;;;;;6115968;23;20006;-81
2023/05/19 01:21:16;;;;;;;8.30;2.85;;;9.30;99.90;;;;;;6114953;23;20036;-82
2023/05/19 01:24:04;;;;;;;17.48;4.32;;;9.30;99.90;;;;;;6115511;23;20065;-82
2023/05/19 01:26:58;;;;;;;9.55;3.17;;;9.30;99.90;;;;;;6116241;23;20065;-81
2023/05/19 01:29:52;;;;;;;12.45;4.10;;;9.30;99.90;;;;;;6117189;23;20002;-82
2023/05/19 01:32:21;;;;;;;11.25;2.92;;;9.30;99.90;;;;;;6083849;23;20006;-81
2023/05/19 01:34:49;;;;;;;10.27;3.25;;;9.30;99.90;;;;;;6112963;23;20492;-82
2023/05/19 01:37:16;;;;;;;15.07;3.70;;;9.20;99.90;;;;;;6117160;23;20455;-81
2023/05/19 01:39:43;;;;;;;17.50;3.85;;;9.30;99.90;;;;;;6115885;23;20017;-82
2023/05/19 01:42:13;;;;;;;12.75;3.72;;;9.30;99.90;;;;;;6117165;23;20010;-85
2023/05/19 01:44:39;;;;;;;6.85;2.70;;;9.30;99.90;;;;;;6115263;23;20405;-81
2023/05/19 01:47:05;;;;;;;6.88;2.65;;;9.20;99.90;;;;;;6116048;23;19998;-81
2023/05/19 01:49:30;;;;;;;10.38;2.80;;;9.20;99.90;;;;;;6114296;23;20006;-81
2023/05/19 01:51:56;;;;;;;17.75;3.67;;;9.20;99.90;;;;;;6118478;23;20093;-82
2023/05/19 01:54:22;;;;;;;20.83;3.97;;;9.20;99.90;;;;;;6116270;23;20034;-81
2023/05/19 01:57:19;;;;;;;19.05;3.78;;;9.20;99.90;;;;;;6115902;23;20328;-82
2023/05/19 01:59:53;;;;;;;15.55;3.42;;;9.20;99.90;;;;;;6112941;23;20025;-81
2023/05/19 02:02:48;;;;;;;16.23;3.40;;;9.10;99.90;;;;;;6115902;23;20097;-81
2023/05/19 02:05:41;;;;;;;13.10;3.42;;;9.10;99.90;;;;;;6109688;23;20009;-81
2023/05/19 02:08:37;;;;;;;3.88;2.42;;;9.10;99.90;;;;;;6110627;23;20002;-83
2023/05/19 02:11:11;;;;;;;8.20;2.80;;;9.10;99.90;;;;;;6116501;23;20348;-81
2023/05/19 02:13:42;;;;;;;8.57;2.85;;;9.10;99.90;;;;;;6113534;23;20005;-81
2023/05/19 02:16:12;;;;;;;10.23;2.97;;;9.10;99.90;;;;;;6087797;23;19998;-83
2023/05/19 02:18:44;;;;;;;6.90;2.92;;;9.10;99.90;;;;;;6114655;23;20006;-82
2023/05/19 02:21:12;;;;;;;7.40;2.58;;;9.10;99.90;;;;;;6116582;23;20084;-82
2023/05/19 02:23:40;;;;;;;9.93;3.22;;;9.10;99.90;;;;;;6117265;23;20032;-84
2023/05/19 02:26:07;;;;;;;11.48;3.00;;;9.10;99.90;;;;;;6114233;23;20005;-82
2023/05/19 02:28:36;;;;;;;12.70;3.50;;;9.00;99.90;;;;;;6114894;23;20006;-81
2023/05/19 02:31:04;;;;;;;7.20;2.97;;;9.00;99.90;;;;;;6115528;23;20009;-82
2023/05/19 02:33:30;;;;;;;10.93;3.50;;;9.00;99.90;;;;;;6116334;23;20392;-82
2023/05/19 02:35:58;;;;;;;6.32;2.55;;;8.90;99.90;;;;;;6114749;23;20077;-85
2023/05/19 02:38:24;;;;;;;7.85;2.63;;;8.90;99.90;;;;;;6114946;23;20016;-83
2023/05/19 02:40:51;;;;;;;10.45;2.53;;;8.90;99.90;;;;;;6115575;23;20405;-86
2023/05/19 02:43:17;;;;;;;9.07;3.00;;;8.90;99.90;;;;;;6116899;23;20002;-82
2023/05/19 02:45:43;;;;;;;10.13;3.40;;;8.80;99.90;;;;;;6115816;23;19998;-82
2023/05/19 02:48:08;;;;;;;8.18;2.78;;;8.80;99.90;;;;;;6113070;23;20001;-82
2023/05/19 02:50:34;;;;;;;12.80;3.17;;;8.80;99.90;;;;;;6114485;23;20010;-81
2023/05/19 02:53:01;;;;;;;9.73;3.45;;;8.80;99.90;;;;;;6114230;23;20002;-85
2023/05/19 02:55:27;;;;;;;10.63;3.33;;;8.90;99.90;;;;;;6116069;23;20032;-81
2023/05/19 02:57:52;;;;;;;11.23;3.00;;;8.90;99.90;;;;;;6116946;23;20500;-83
2023/05/19 03:00:18;;;;;;;9.95;3.47;;;8.90;99.90;;;;;;6116500;23;20080;-82
2023/05/19 03:02:44;;;;;;;7.82;2.90;;;8.90;99.90;;;;;;6114438;23;20002;-82
2023/05/19 03:05:10;;;;;;;11.25;2.97;;;8.90;99.90;;;;;;6115108;23;20123;-83
2023/05/19 03:07:36;;;;;;;13.65;3.78;;;8.80;99.90;;;;;;6114679;23;20029;-82
2023/05/19 03:10:05;;;;;;;11.20;3.15;;;8.80;99.90;;;;;;6117204;23;20001;-82
2023/05/19 03:12:32;;;;;;;10.15;2.83;;;8.70;99.90;;;;;;6116959;23;20037;-82
2023/05/19 03:14:59;;;;;;;14.32;3.58;;;8.70;99.90;;;;;;6113716;23;20094;-83
2023/05/19 03:17:25;;;;;;;12.07;3.15;;;8.70;99.90;;;;;;6114856;23;19998;-83
2023/05/19 03:19:51;;;;;;;13.43;3.95;;;8.70;99.90;;;;;;6115041;23;20060;-82
2023/05/19 03:22:20;;;;;;;10.10;2.92;;;8.70;99.90;;;;;;6115958;23;20049;-82
2023/05/19 03:24:45;;;;;;;9.73;2.90;;;8.60;99.90;;;;;;6116283;23;20002;-82
2023/05/19 03:27:11;;;;;;;13.43;3.05;;;8.60;99.90;;;;;;6113725;23;20059;-82
2023/05/19 03:29:40;;;;;;;9.70;3.42;;;8.60;99.90;;;;;;6115617;23;20005;-83
2023/05/19 03:32:05;;;;;;;16.75;3.45;;;8.60;99.90;;;;;;6112174;23;20014;-82
2023/05/19 03:34:31;;;;;;;11.98;3.28;;;8.60;99.90;;;;;;6115362;23;19998;-81
2023/05/19 03:36:57;;;;;;;14.07;3.28;;;8.60;99.90;;;;;;6117089;23;20391;-82
2023/05/19 03:39:22;;;;;;;13.10;3.58;;;8.50;99.90;;;;;;6118117;23;20002;-82
2023/05/19 03:41:48;;;;;;;11.02;2.85;;;8.60;99.90;;;;;;6115238;23;20018;-82
2023/05/19 03:44:14;;;;;;;13.25;2.90;;;8.50;99.90;;;;;;6117696;23;20306;-82
2023/05/19 03:46:41;;;;;;;7.38;2.85;;;8.50;99.90;;;;;;6114726;23;19998;-83
2023/05/19 03:49:06;;;;;;;18.08;3.95;;;8.50;99.90;;;;;;6114694;23;20077;-83
2023/05/19 03:51:33;;;;;;;7.30;2.90;;;8.50;99.90;;;;;;6117271;23;20034;-82
2023/05/19 03:53:59;;;;;;;12.13;3.70;;;8.50;99.90;;;;;;6115888;23;20009;-82
2023/05/19 03:56:26;;;;;;;8.82;3.30;;;8.50;99.90;;;;;;6117246;23;20332;-85
2023/05/19 03:58:53;;;;;;;15.00;3.40;;;8.60;99.90;;;;;;6115198;23;20341;-84
2023/05/19 04:01:20;;;;;;;10.60;3.53;;;8.60;99.90;;;;;;6113671;23;20064;-82
2023/05/19 04:03:45;;;;;;;12.80;4.03;;;8.60;99.90;;;;;;6113254;23;20089;-82
2023/05/19 04:06:13;;;;;;;16.40;4.03;;;8.60;99.90;;;;;;6112956;23;20067;-82
2023/05/19 04:08:39;;;;;;;15.52;3.72;;;8.60;99.90;;;;;;6115080;23;20024;-83
2023/05/19 04:11:04;;;;;;;13.60;3.72;;;8.70;99.90;;;;;;6090977;23;20018;-82
2023/05/19 04:13:33;;;;;;;7.43;2.95;;;8.70;99.90;;;;;;6115296;23;20036;-86
2023/05/19 04:15:59;;;;;;;12.43;3.70;;;8.80;99.90;;;;;;6114779;23;20014;-83
2023/05/19 04:18:25;;;;;;;12.50;3.78;;;8.80;99.90;;;;;;6114756;23;20009;-84
2023/05/19 04:20:51;;;;;;;18.15;4.40;;;8.80;99.90;;;;;;6112580;23;20014;-82
2023/05/19 04:23:16;;;;;;;12.15;3.47;;;8.90;99.90;;;;;;6116538;23;20017;-83
2023/05/19 04:25:42;;;;;;;15.15;3.95;;;8.90;99.90;;;;;;6115361;23;20471;-82
2023/05/19 04:28:08;;;;;;;9.90;3.53;;;8.90;99.90;;;;;;6115988;23;20010;-83
2023/05/19 04:30:35;;;;;;;20.88;4.07;;;9.00;99.90;;;;;;6114763;23;20571;-82
2023/05/19 04:33:02;;;;;;;15.77;4.68;;;9.00;99.90;;;;;;6091047;23;20029;-81
2023/05/19 04:35:28;;;;;;;19.17;4.45;;;9.00;99.90;;;;;;6115173;23;20416;-82
2023/05/19 04:37:57;;;;;;;20.80;5.00;;;9.00;99.90;;;;;;6116307;23;20008;-84
2023/05/19 04:40:22;;;;;;;14.20;3.78;;;9.10;99.90;;;;;;6117486;23;20006;-81
2023/05/19 04:42:51;;;;;;;10.70;3.88;;;9.10;99.90;;;;;;6115717;23;20001;-81
2023/05/19 04:45:17;;;;;;;13.35;3.88;;;9.10;99.90;;;;;;6115841;23;20009;-81
2023/05/19 04:47:43;;;;;;;18.48;4.15;;;9.20;99.90;;;;;;6115644;23;20370;-82
2023/05/19 04:50:10;;;;;;;13.43;4.10;;;9.20;99.90;;;;;;6118521;23;20026;-82
2023/05/19 04:52:36;;;;;;;17.48;4.20;;;9.30;99.90;;;;;;6116753;23;20017;-81
2023/05/19 04:55:02;;;;;;;9.25;3.72;;;9.30;99.90;;;;;;6115899;23;20002;-81
2023/05/19 04:57:28;;;;;;;17.70;5.00;;;9.30;99.90;;;;;;6115743;23;20045;-82
2023/05/19 04:59:58;;;;;;;19.38;4.25;;;9.20;99.90;;;;;;6116219;23;20053;-85
2023/05/19 05:02:27;;;;;;;19.88;4.63;;;9.20;99.90;;;;;;6118587;23;20002;-81
2023/05/19 05:04:55;;;;;;;25.70;5.05;;;9.30;99.90;;;;;;6116801;23;20692;-82
2023/05/19 05:07:22;;;;;;;16.95;4.70;;;9.30;99.90;;;;;;6117607;23;20006;-82
2023/05/19 05:09:47;;;;;;;19.67;4.65;;;9.30;99.90;;;;;;6112744;23;20010;-81
2023/05/19 05:12:14;;;;;;;15.40;5.47;;;9.30;99.90;;;;;;6114403;23;20085;-81
2023/05/19 05:14:40;;;;;;;10.60;4.03;;;9.30;99.90;;;;;;6113367;23;20006;-82
2023/05/19 05:17:08;;;;;;;15.25;4.60;;;9.30;99.90;;;;;;6115180;23;20049;-83
2023/05/19 05:19:34;;;;;;;14.20;5.78;;;9.30;99.90;;;;;;6114789;23;20005;-82
2023/05/19 05:22:00;;;;;;;14.40;5.03;;;9.30;99.90;;;;;;6115292;23;20045;-82
2023/05/19 05:24:26;;;;;;;19.63;5.72;;;9.30;99.90;;;;;;6115958;23;20006;-82
2023/05/19 05:26:52;;;;;;;16.25;4.40;;;9.30;99.90;;;;;;6117627;23;20001;-81
2023/05/19 05:29:19;;;;;;;13.88;4.97;;;9.30;99.90;;;;;;6117862;23;20006;-81
2023/05/19 05:31:45;;;;;;;21.42;5.10;;;9.40;99.90;;;;;;6114454;23;20170;-82
2023/05/19 05:34:10;;;;;;;18.10;4.45;;;9.40;99.90;;;;;;6111403;23;20030;-82
2023/05/19 05:36:36;;;;;;;18.67;5.07;;;9.40;99.90;;;;;;6115611;23;20016;-81
2023/05/19 05:39:03;;;;;;;23.70;5.25;;;9.50;99.90;;;;;;6113264;23;19998;-81
2023/05/19 05:41:33;;;;;;;17.88;5.38;;;9.50;99.90;;;;;;6112397;23;20045;-81
2023/05/19 05:44:01;;;;;;;19.77;5.70;;;9.50;99.90;;;;;;6112384;23;20002;-85
2023/05/19 05:46:26;;;;;;;22.10;4.97;;;9.50;99.90;;;;;;6089937;23;20006;-81
2023/05/19 05:48:52;;;;;;;23.90;5.43;;;9.50;99.90;;;;;;6117807;23;19998;-81
2023/05/19 05:51:21;;;;;;;20.83;5.88;;;9.60;99.90;;;;;;6118027;23;20002;-81
2023/05/19 05:53:51;;;;;;;13.25;4.60;;;9.60;99.90;;;;;;6112881;23;20080;-82
2023/05/19 05:56:17;;;;;;;19.95;6.22;;;9.60;99.90;;;;;;6115157;23;20036;-81
2023/05/19 05:58:43;;;;;;;17.40;5.32;;;9.70;99.90;;;;;;6113987;23;20392;-81
2023/05/19 06:01:10;;;;;;;15.85;4.60;;;9.70;99.90;;;;;;6087895;23;20109;-82
2023/05/19 06:03:43;;;;;;;16.00;4.97;;;9.70;99.90;;;;;;6114441;23;20064;-81
2023/05/19 06:06:10;;;;;;;17.60;5.32;;;9.70;99.90;;;;;;6117138;23;19998;-82
2023/05/19 06:08:35;;;;;;;22.10;6.22;;;9.80;99.90;;;;;;6091439;23;20005;-79
2023/05/19 06:11:07;;;;;;;18.63;5.13;;;9.80;99.90;;;;;;6114771;23;20029;-80
2023/05/19 06:13:36;;;;;;;19.58;4.53;;;9.90;99.90;;;;;;6114391;23;20002;-80
2023/05/19 06:16:03;;;;;;;17.73;5.05;;;9.90;99.90;;;;;;6111955;23;20444;-80
2023/05/19 06:18:28;;;;;;;14.48;5.13;;;9.90;99.90;;;;;;6114625;23;20002;-81
2023/05/19 06:20:54;;;;;;;11.90;4.15;;;10.00;99.90;;;;;;6114444;23;20076;-81
2023/05/19 06:23:20;;;;;;;13.80;4.82;;;10.10;99.90;;;;;;6115057;23;20006;-80
2023/05/19 06:25:46;;;;;;;15.20;5.38;;;10.10;99.90;;;;;;6113171;23;20086;-81
2023/05/19 06:28:12;;;;;;;14.57;4.47;;;10.20;99.90;;;;;;6113037;23;20002;-82
2023/05/19 06:30:37;;;;;;;19.33;4.70;;;10.30;99.90;;;;;;6113647;23;20429;-80
2023/05/19 06:33:03;;;;;;;11.65;4.50;;;10.30;99.90;;;;;;6114475;23;20002;-81
2023/05/19 06:35:29;;;;;;;28.70;6.50;;;10.40;99.90;;;;;;6117179;23;20088;-81
2023/05/19 06:37:56;;;;;;;14.45;4.43;;;10.40;99.90;;;;;;6113650;23;20592;-81
2023/05/19 06:40:22;;;;;;;9.45;4.35;;;10.50;99.90;;;;;;6115509;23;20014;-80
2023/05/19 06:42:48;;;;;;;20.63;4.68;;;10.50;99.90;;;;;;6113273;23;20085;-81
2023/05/19 06:45:14;;;;;;;11.73;4.13;;;10.60;99.90;;;;;;6116209;23;20406;-80
2023/05/19 06:47:41;;;;;;;13.95;4.78;;;10.70;99.90;;;;;;6111312;23;20302;-81
2023/05/19 06:50:07;;;;;;;13.75;4.50;;;10.70;99.90;;;;;;6116726;23;19998;-81
2023/05/19 06:52:33;;;;;;;11.15;4.20;;;10.70;99.90;;;;;;6116624;23;20013;-80
2023/05/19 06:55:02;;;;;;;14.15;4.40;;;10.80;99.90;;;;;;6111871;23;20085;-82
2023/05/19 06:57:27;;;;;;;10.55;3.50;;;10.80;99.90;;;;;;6087750;23;20052;-80
2023/05/19 06:59:53;;;;;;;11.88;4.15;;;10.80;99.90;;;;;;6115893;23;19998;-80
2023/05/19 07:02:21;;;;;;;16.60;4.07;;;10.80;99.90;;;;;;6115949;23;20417;-82
2023/05/19 07:04:47;;;;;;;9.85;4.30;;;10.80;99.90;;;;;;6114447;23;20444;-78
2023/05/19 07:07:13;;;;;;;16.05;4.55;;;10.90;99.90;;;;;;6116293;23;20006;-80
2023/05/19 07:09:38;;;;;;;16.40;4.72;;;11.00;99.90;;;;;;6114646;23;20002;-81
2023/05/19 07:12:06;;;;;;;9.10;3.72;;;11.00;99.90;;;;;;6113656;23;20241;-83
2023/05/19 07:14:35;;;;;;;9.18;3.35;;;11.10;99.90;;;;;;6113428;23;20028;-84
2023/05/19 07:17:01;;;;;;;14.32;3.90;;;11.10;99.90;;;;;;6116935;23;20060;-80
2023/05/19 07:19:26;;;;;;;23.58;4.28;;;11.20;99.90;;;;;;6114515;23;20006;-78
2023/05/19 07:21:53;;;;;;;11.13;3.80;;;11.30;99.90;;;;;;6116115;23;20317;-79
2023/05/19 07:24:20;;;;;;;13.93;4.50;;;11.30;99.90;;;;;;6114009;23;19994;-80
2023/05/19 07:26:45;;;;;;;10.95;4.15;;;11.40;99.90;;;;;;6113874;23;20437;-80
2023/05/19 07:29:11;;;;;;;12.38;4.75;;;11.50;99.90;;;;;;6115419;23;20006;-80
2023/05/19 07:31:36;;;;;;;10.70;4.07;;;11.50;99.90;;;;;;6111156;23;20009;-81
2023/05/19 07:34:02;;;;;;;14.00;4.57;;;11.60;99.90;;;;;;6114635;23;20053;-79
2023/05/19 07:36:28;;;;;;;15.68;5.05;;;11.60;99.90;;;;;;6114970;23;20010;-80
2023/05/19 07:38:53;;;;;;;9.85;4.65;;;11.70;99.90;;;;;;6114993;23;20259;-80
2023/05/19 07:41:20;;;;;;;17.65;4.57;;;11.80;99.90;;;;;;6116594;23;20344;-80
2023/05/19 07:43:46;;;;;;;19.00;5.35;;;11.80;99.90;;;;;;6115743;23;20009;-80
2023/05/19 07:46:11;;;;;;;14.07;5.03;;;11.90;99.90;;;;;;6114463;23;20003;-79
2023/05/19 07:48:37;;;;;;;14.55;4.55;;;12.10;99.90;;;;;;6115219;23;20009;-80
2023/05/19 07:51:03;;;;;;;18.20;4.35;;;12.20;99.90;;;;;;6115438;23;20002;-79
2023/05/19 07:53:28;;;;;;;11.15;3.95;;;12.20;99.90;;;;;;6113068;23;20064;-79
2023/05/19 07:55:55;;;;;;;13.93;4.38;;;12.20;99.90;;;;;;6116569;23;20029;-80
2023/05/19 07:58:20;;;;;;;21.25;5.88;;;12.30;99.90;;;;;;6116804;23;20005;-79
2023/05/19 08:00:46;;;;;;;12.45;4.90;;;12.20;99.90;;;;;;6113255;23;20018;-80
2023/05/19 08:03:12;;;;;;;13.40;4.30;;;12.30;99.90;;;;;;6112497;23;20010;-81
2023/05/19 08:05:38;;;;;;;12.98;4.40;;;12.30;99.90;;;;;;6112618;23;20001;-79
2023/05/19 08:08:03;;;;;;;12.73;4.47;;;12.30;99.90;;;;;;6116792;23;20013;-80
2023/05/19 08:10:32;;;;;;;10.10;4.10;;;12.40;99.90;;;;;;6115181;23;20037;-80
2023/05/19 08:12:57;;;;;;;10.05;3.92;;;12.40;99.90;;;;;;6117567;23;20006;-79
2023/05/19 08:15:24;;;;;;;10.93;3.70;;;12.40;99.90;;;;;;6117949;23;20429;-81
2023/05/19 08:17:50;;;;;;;10.82;3.50;;;12.40;99.90;;;;;;6114219;23;20376;-81
2023/05/19 08:20:15;;;;;;;11.68;4.20;;;12.50;99.90;;;;;;6114327;23;20336;-80
2023/05/19 08:22:41;;;;;;;16.33;4.50;;;12.50;99.90;;;;;;6113464;23;19998;-81
2023/05/19 08:25:08;;;;;;;20.50;4.82;;;12.50;99.90;;;;;;6115191;23;20006;-79
2023/05/19 08:27:33;;;;;;;12.90;4.22;;;12.60;99.90;;;;;;6114041;23;20076;-79
2023/05/19 08:29:59;;;;;;;11.55;4.05;;;12.60;99.90;;;;;;6117760;23;20080;-80
2023/05/19 08:32:25;;;;;;;16.48;4.25;;;12.60;99.90;;;;;;6117945;23;20002;-79
2023/05/19 08:34:50;;;;;;;14.07;4.40;;;12.70;99.90;;;;;;6115993;23;20006;-79
2023/05/19 08:37:16;;;;;;;17.95;5.43;;;12.80;99.90;;;;;;6115248;23;20025;-79
2023/05/19 08:39:41;;;;;;;7.18;3.85;;;12.80;99.90;;;;;;6115929;23;19998;-79
2023/05/19 08:42:08;;;;;;;11.15;4.20;;;12.90;99.90;;;;;;6115509;23;20057;-82
2023/05/19 08:44:36;;;;;;;14.52;4.20;;;13.00;99.90;;;;;;6117824;23;20451;-80
2023/05/19 08:47:11;;;;;;;17.70;4.75;;;13.10;99.90;;;;;;6113686;23;20917;-79
2023/05/19 08:49:42;;;;;;;13.02;4.07;;;13.10;99.90;;;;;;6118136;23;20053;-79
2023/05/19 08:52:11;;;;;;;11.00;3.97;;;13.10;99.90;;;;;;6117900;23;20033;-80
2023/05/19 08:54:44;;;;;;;13.70;4.70;;;13.20;99.90;;;;;;6114630;23;20006;-80
2023/05/19 08:57:13;;;;;;;10.88;3.53;;;13.20;99.90;;;;;;6115268;23;19998;-79
2023/05/19 08:59:40;;;;;;;14.63;4.82;;;13.30;99.90;;;;;;6090757;23;20002;-82
2023/05/19 09:02:07;;;;;;;10.25;3.78;;;13.30;99.90;;;;;;6113427;23;20345;-79
2023/05/19 09:04:33;;;;;;;7.82;3.58;;;13.40;99.90;;;;;;6114890;23;20462;-77
2023/05/19 09:07:02;;;;;;;13.75;4.15;;;13.30;99.90;;;;;;6112175;23;20425;-79
2023/05/19 09:09:29;;;;;;;6.18;3.45;;;13.30;99.90;;;;;;6114322;23;20097;-80
2023/05/19 09:11:55;;;;;;;11.23;4.55;;;13.30;99.90;;;;;;6116354;23;20023;-80
2023/05/19 09:14:21;;;;;;;8.30;3.42;;;13.30;99.90;;;;;;6087812;23;20002;-80
2023/05/19 09:16:49;;;;;;;9.10;3.90;;;13.30;99.90;;;;;;6112938;23;20159;-79
2023/05/19 09:19:15;;;;;;;10.45;3.92;;;13.50;99.90;;;;;;6114509;23;20613;-77
2023/05/19 09:21:41;;;;;;;14.77;4.63;;;13.60;99.90;;;;;;6116084;23;20532;-79
2023/05/19 09:24:08;;;;;;;10.55;4.15;;;13.60;99.90;;;;;;6115773;23;20030;-80
2023/05/19 09:26:38;;;;;;;10.55;3.47;;;13.70;99.90;;;;;;6115222;23;20013;-79
2023/05/19 09:29:15;;;;;;;18.73;4.55;;;13.70;99.90;;;;;;6116083;23;20013;-81
2023/05/19 09:32:03;;;;;;;11.30;4.25;;;13.90;99.90;;;;;;6114433;23;20009;-80
2023/05/19 09:34:29;;;;;;;18.10;3.72;;;14.00;99.90;;;;;;6114912;23;20010;-79
2023/05/19 09:36:54;;;;;;;17.08;4.35;;;14.10;99.90;;;;;;6112362;23;20005;-80
2023/05/19 09:39:22;;;;;;;18.63;4.13;;;14.10;99.90;;;;;;6115042;23;20002;-79
2023/05/19 09:41:53;;;;;;;8.23;3.88;;;14.20;99.90;;;;;;6110943;23;20041;-78
2023/05/19 09:44:19;;;;;;;16.30;3.97;;;14.40;99.90;;;;;;6117460;23;20002;-79
2023/05/19 09:46:49;;;;;;;7.78;3.42;;;14.40;99.90;;;;;;6110759;23;20097;-82
2023/05/19 09:49:20;;;;;;;13.30;4.10;;;14.40;99.90;;;;;;6112274;23;20519;-80
2023/05/19 09:51:52;;;;;;;14.57;5.03;;;14.50;99.90;;;;;;6115349;23;20440;-80
2023/05/19 09:54:20;;;;;;;11.35;4.10;;;14.50;99.90;;;;;;6117627;23;20416;-79
2023/05/19 09:56:55;;;;;;;6.28;3.03;;;14.40;99.90;;;;;;6115728;23;20001;-79
2023/05/19 09:59:23;;;;;;;12.68;3.33;;;14.40;99.90;;;;;;6115759;23;20332;-78
2023/05/19 10:01:55;;;;;;;12.35;4.05;;;14.40;99.90;;;;;;6114643;23;20044;-79
2023/05/19 10:04:22;;;;;;;8.35;3.80;;;14.40;99.90;;;;;;6114184;23;20002;-79
2023/05/19 10:06:53;;;;;;;11.50;3.30;;;14.40;99.90;;;;;;6116400;23;19998;-77
2023/05/19 10:09:38;;;;;;;8.43;3.80;;;14.50;99.90;;;;;;6117230;23;19998;-80
2023/05/19 10:12:04;;;;;;;9.95;3.47;;;14.60;99.90;;;;;;6115334;23;20180;-79
2023/05/19 10:14:29;;;;;;;7.40;3.25;;;14.90;99.90;;;;;;6115656;23;20002;-78
2023/05/19 10:17:00;;;;;;;11.02;3.22;;;15.10;99.90;;;;;;6113669;23;20002;-79
2023/05/19 10:19:27;;;;;;;21.30;3.53;;;15.20;99.90;;;;;;6115048;23;20013;-78
2023/05/19 10:21:54;;;;;;;13.55;4.20;;;15.40;99.90;;;;;;6115602;23;20349;-79
2023/05/19 10:25:08;;;;;;;9.27;3.50;;;15.40;99.90;;;;;;5096004;27;20126;-81
2023/05/19 10:27:38;;;;;;;11.98;3.45;;;15.30;99.90;;;;;;5078754;28;20036;-77
2023/05/19 10:30:09;;;;;;;9.15;3.42;;;15.30;99.90;;;;;;5077900;28;20028;-79
2023/05/19 10:32:38;;;;;;;10.48;3.15;;;15.20;99.90;;;;;;5077193;28;20044;-78
2023/05/19 10:35:26;;;;;;;6.60;3.50;;;15.10;99.90;;;;;;5073467;28;20036;-79
2023/05/19 10:38:14;;;;;;;10.57;2.72;;;15.10;99.90;;;;;;5082644;28;20123;-77
2023/05/19 10:40:52;;;;;;;4.18;2.70;;;15.10;99.90;;;;;;5075426;28;20036;-78
2023/05/19 10:43:26;;;;;;;5.05;3.00;;;15.20;99.90;;;;;;5076472;28;20048;-78
2023/05/19 10:45:53;;;;;;;11.30;4.22;;;15.10;99.90;;;;;;5082656;28;20163;-78
2023/05/19 10:48:23;;;;;;;4.78;2.50;;;15.10;99.90;;;;;;5094214;28;20054;-77
2023/05/19 10:50:53;;;;;;;9.85;3.00;;;15.00;99.90;;;;;;5077733;28;20043;-79
2023/05/19 10:53:22;;;;;;;9.45;3.13;;;15.00;99.90;;;;;;5072790;28;20020;-78
2023/05/19 10:55:52;;;;;;;9.05;3.63;;;15.00;99.90;;;;;;5080439;28;20029;-79
2023/05/19 10:58:40;;;;;;;13.07;3.25;;;15.10;99.90;;;;;;5083719;28;20047;-77
2023/05/19 11:01:08;;;;;;;7.10;2.50;;;15.20;99.90;;;;;;5073133;28;20035;-79
2023/05/19 11:03:52;;;;;;;7.57;2.90;;;15.20;99.90;;;;;;5085396;28;20051;-78
2023/05/19 11:06:21;;;;;;;9.70;2.42;;;15.20;99.90;;;;;;5088985;28;20251;-77
2023/05/19 11:08:50;;;;;;;11.18;2.80;;;15.20;99.90;;;;;;5077490;28;20051;-79
2023/05/19 11:11:16;;;;;;;6.95;2.90;;;15.20;99.90;;;;;;5068345;28;20089;-78
2023/05/19 11:13:47;;;;;;;9.55;3.42;;;15.30;99.90;;;;;;5068591;28;20020;-77
2023/05/19 11:16:12;;;;;;;11.82;3.42;;;15.40;99.90;;;;;;5092880;28;20472;-79
2023/05/19 11:18:38;;;;;;;9.88;3.05;;;15.50;99.90;;;;;;5081062;28;20039;-78
2023/05/19 11:21:04;;;;;;;18.52;3.45;;;15.50;99.90;;;;;;5075847;28;20056;-77
2023/05/19 11:23:33;;;;;;;6.70;2.55;;;15.60;99.90;;;;;;5078810;28;20048;-79
2023/05/19 11:26:01;;;;;;;7.20;2.60;;;15.70;99.90;;;;;;5096980;28;20536;-80
2023/05/19 11:28:28;;;;;;;5.25;2.70;;;15.70;99.90;;;;;;5083443;28;20035;-78
2023/05/19 11:30:56;;;;;;;5.93;2.65;;;15.80;99.90;;;;;;5091864;28;20032;-79
2023/05/19 11:33:26;;;;;;;4.68;2.45;;;15.80;99.90;;;;;;5092032;28;20031;-78
2023/05/19 11:36:01;;;;;;;7.32;2.58;;;15.90;99.90;;;;;;5079660;28;20020;-76
2023/05/19 11:38:28;;;;;;;6.68;2.58;;;15.90;99.90;;;;;;5087883;28;20113;-79
2023/05/19 11:40:55;;;;;;;11.23;2.83;;;16.00;99.90;;;;;;5082700;28;20036;-78
2023/05/19 11:43:24;;;;;;;5.70;2.35;;;16.00;99.90;;;;;;5075239;28;20047;-80
2023/05/19 11:45:50;;;;;;;4.85;2.40;;;15.90;99.90;;;;;;5059432;28;20031;-79
2023/05/19 11:48:19;;;;;;;5.03;2.08;;;15.90;99.90;;;;;;5084086;28;20024;-80
2023/05/19 11:50:45;;;;;;;10.27;2.20;;;15.80;99.90;;;;;;5070383;28;20020;-78
2023/05/19 11:53:12;;;;;;;4.72;2.03;;;15.80;99.90;;;;;;5087221;28;20389;-81
2023/05/19 11:55:43;;;;;;;4.82;2.60;;;15.80;99.90;;;;;;5091116;28;20157;-81
2023/05/19 11:58:09;;;;;;;4.18;1.83;;;15.90;99.90;;;;;;5087191;28;20032;-77
2023/05/19 12:00:38;;;;;;;2.80;2.03;;;16.00;99.90;;;;;;5079739;28;20023;-78
2023/05/19 12:03:05;;;;;;;8.07;2.28;;;16.10;99.90;;;;;;5074158;28;20037;-77
2023/05/19 12:05:31;;;;;;;3.00;2.00;;;16.20;99.90;;;;;;5081704;28;20024;-77
2023/05/19 12:07:58;;;;;;;6.63;1.70;;;16.30;99.90;;;;;;5085274;28;20118;-77
2023/05/19 12:10:27;;;;;;;11.02;2.38;;;16.50;99.90;;;;;;5088434;28;20059;-78
2023/05/19 12:12:53;;;;;;;11.70;1.92;;;16.50;99.90;;;;;;5090672;28;20036;-78
2023/05/19 12:15:22;;;;;;;5.45;2.00;;;16.50;99.90;;;;;;5078422;28;20025;-78
2023/05/19 12:17:49;;;;;;;5.93;2.00;;;16.50;99.90;;;;;;5090726;28;20030;-78
2023/05/19 12:20:14;;;;;;;5.07;1.90;;;16.50;99.90;;;;;;5074164;28;20259;-76
2023/05/19 12:22:40;;;;;;;4.53;1.75;;;16.50;99.90;;;;;;5090120;28;20477;-80
2023/05/19 12:25:06;;;;;;;18.20;2.25;;;16.40;99.90;;;;;;5070313;28;20032;-79
2023/05/19 12:27:36;;;;;;;3.33;2.30;;;16.40;99.90;;;;;;5087778;28;20122;-83
2023/05/19 12:30:03;;;;;;;5.45;2.33;;;16.40;99.90;;;;;;5076752;28;20035;-77
2023/05/19 12:32:32;;;;;;;18.90;2.28;;;16.30;99.90;;;;;;5071920;28;20389;-77
2023/05/19 12:35:01;;;;;;;6.00;1.88;;;16.30;99.90;;;;;;5074049;28;20024;-80
2023/05/19 12:37:28;;;;;;;3.90;1.70;;;16.10;99.90;;;;;;5085739;28;20043;-79
2023/05/19 12:39:55;;;;;;;8.23;2.90;;;16.10;99.90;;;;;;5084615;28;20044;-80
2023/05/19 12:42:22;;;;;;;6.47;1.67;;;16.20;99.90;;;;;;5081411;28;20027;-77
2023/05/19 12:44:51;;;;;;;8.43;2.13;;;16.20;99.90;;;;;;5085973;28;20067;-80
2023/05/19 12:47:21;;;;;;;4.68;2.30;;;16.20;99.90;;;;;;5078422;28;20028;-79
2023/05/19 12:50:00;;;;;;;4.75;2.03;;;16.20;99.90;;;;;;5084078;28;20028;-78
2023/05/19 12:52:28;;;;;;;3.30;1.88;;;16.20;99.90;;;;;;5086046;28;20044;-82